createdAt,value
2018-05-13T00:00:36.597Z,16.60
2018-05-13T00:03:04.075Z,15.70
2018-05-13T00:05:31.589Z,18.70
2018-05-13T00:07:59.129Z,17.53
2018-05-13T00:10:26.641Z,15.90
2018-05-13T00:12:54.131Z,15.33
2018-05-13T00:15:21.640Z,18.00
2018-05-13T00:17:49.124Z,19.17
2018-05-13T00:20:16.634Z,18.30
2018-05-13T00:22:45.773Z,17.70
2018-05-13T00:25:13.277Z,17.67
2018-05-13T00:27:40.788Z,17.33
2018-05-13T00:30:08.274Z,18.03
2018-05-13T00:32:35.786Z,16.27
2018-05-13T00:35:03.272Z,16.37
2018-05-13T00:37:30.784Z,16.33
2018-05-13T00:39:58.327Z,20.93
2018-05-13T00:42:26.589Z,16.00
2018-05-13T00:44:54.171Z,16.90
2018-05-13T00:47:21.650Z,17.13
2018-05-13T00:49:49.170Z,15.10
2018-05-13T00:52:17.429Z,17.50
2018-05-13T00:54:55.672Z,16.47
2018-05-13T00:57:23.953Z,26.43
2018-05-13T00:59:51.968Z,14.20
2018-05-13T01:02:19.508Z,19.07
2018-05-13T01:04:46.993Z,18.33
2018-05-13T01:07:14.477Z,15.17
2018-05-13T01:09:43.826Z,18.77
2018-05-13T01:12:11.301Z,18.00
2018-05-13T01:14:38.848Z,16.50
2018-05-13T01:17:06.367Z,18.07
2018-05-13T01:19:33.904Z,19.37
2018-05-13T01:22:02.159Z,15.57
2018-05-13T01:24:29.641Z,18.70
2018-05-13T01:26:57.153Z,15.80
2018-05-13T01:29:24.647Z,16.53
2018-05-13T01:31:52.936Z,19.13
2018-05-13T01:34:20.417Z,18.60
2018-05-13T01:36:47.927Z,16.53
2018-05-13T01:39:15.442Z,17.10
2018-05-13T01:41:42.962Z,20.47
2018-05-13T01:44:11.250Z,20.33
2018-05-13T01:46:38.762Z,18.60
2018-05-13T01:49:06.264Z,21.93
2018-05-13T01:51:34.064Z,21.60
2018-05-13T01:54:01.580Z,20.33
2018-05-13T01:56:30.059Z,18.10
2018-05-13T01:58:58.014Z,19.40
2018-05-13T02:01:26.349Z,19.00
2018-05-13T02:03:53.845Z,21.60
2018-05-13T02:06:22.101Z,19.73
2018-05-13T02:08:49.605Z,19.27
2018-05-13T02:11:17.081Z,21.23
2018-05-13T02:13:44.621Z,25.70
2018-05-13T02:16:12.169Z,19.30
2018-05-13T02:18:39.696Z,16.73
2018-05-13T02:21:07.948Z,16.63
2018-05-13T02:23:35.429Z,14.97
2018-05-13T02:26:03.716Z,16.33
2018-05-13T02:28:32.030Z,24.03
2018-05-13T02:30:59.520Z,21.77
2018-05-13T02:33:27.019Z,24.73
2018-05-13T02:35:55.147Z,22.53
2018-05-13T02:38:22.714Z,22.70
2018-05-13T02:40:50.255Z,19.43
2018-05-13T02:43:17.768Z,17.87
2018-05-13T02:45:45.265Z,13.60
2018-05-13T02:48:12.789Z,17.33
2018-05-13T02:50:40.315Z,12.60
2018-05-13T02:53:08.601Z,18.70
2018-05-13T02:55:36.096Z,16.47
2018-05-13T02:58:03.606Z,19.73
2018-05-13T03:00:32.461Z,22.37
2018-05-13T03:02:59.974Z,18.30
2018-05-13T03:05:27.501Z,19.60
2018-05-13T03:07:55.807Z,21.13
2018-05-13T03:10:23.377Z,21.83
2018-05-13T03:12:50.922Z,16.87
2018-05-13T03:15:18.459Z,19.90
2018-05-13T03:17:45.978Z,19.63
2018-05-13T03:20:13.465Z,20.47
2018-05-13T03:22:41.729Z,16.20
2018-05-13T03:25:10.005Z,16.77
2018-05-13T03:27:37.548Z,16.20
2018-05-13T03:30:05.035Z,18.47
2018-05-13T03:32:33.313Z,20.67
2018-05-13T03:35:02.346Z,18.77
2018-05-13T03:37:29.933Z,17.80
2018-05-13T03:39:57.474Z,26.57
2018-05-13T03:42:24.973Z,20.10
2018-05-13T03:44:52.486Z,21.63
2018-05-13T03:47:20.011Z,28.03
2018-05-13T03:49:47.503Z,19.90
2018-05-13T03:52:15.009Z,20.40
2018-05-13T03:54:43.288Z,23.30
2018-05-13T03:57:10.796Z,26.27
2018-05-13T03:59:38.293Z,22.57
2018-05-13T04:02:06.576Z,24.17
2018-05-13T04:04:34.082Z,22.37
2018-05-13T04:07:01.595Z,24.87
2018-05-13T04:09:40.841Z,26.20
2018-05-13T04:12:20.377Z,26.97
2018-05-13T04:14:59.681Z,26.53
2018-05-13T04:17:27.961Z,27.13
2018-05-13T04:19:56.204Z,27.13
2018-05-13T04:22:23.705Z,29.90
2018-05-13T04:24:51.206Z,28.60
2018-05-13T04:27:18.708Z,23.30
2018-05-13T04:29:46.229Z,22.53
2018-05-13T04:32:13.748Z,25.50
2018-05-13T04:34:41.230Z,28.80
2018-05-13T04:37:08.750Z,27.30
2018-05-13T04:39:36.270Z,24.40
2018-05-13T04:42:04.552Z,34.10
2018-05-13T04:44:32.845Z,24.30
2018-05-13T04:47:01.094Z,21.10
2018-05-13T04:49:28.593Z,20.70
2018-05-13T04:51:56.085Z,19.07
2018-05-13T04:54:23.599Z,24.43
2018-05-13T04:56:51.072Z,24.73
2018-05-13T04:59:18.580Z,24.17
2018-05-13T05:01:46.834Z,21.60
2018-05-13T05:04:14.340Z,25.60
2018-05-13T05:06:42.781Z,23.57
2018-05-13T05:09:11.064Z,27.23
2018-05-13T05:11:38.591Z,23.70
2018-05-13T05:14:06.089Z,24.07
2018-05-13T05:16:34.332Z,25.50
2018-05-13T05:19:01.843Z,30.13
2018-05-13T05:21:29.357Z,26.97
2018-05-13T05:23:56.876Z,28.70
2018-05-13T05:26:24.369Z,31.07
2018-05-13T05:28:51.858Z,29.17
2018-05-13T05:31:19.365Z,25.33
2018-05-13T05:33:46.841Z,25.60
2018-05-13T05:36:14.347Z,30.93
2018-05-13T05:38:41.840Z,37.20
2018-05-13T05:41:09.350Z,32.73
2018-05-13T05:43:36.833Z,30.57
2018-05-13T05:46:04.357Z,31.00
2018-05-13T05:48:31.863Z,37.70
2018-05-13T05:50:59.356Z,39.43
2018-05-13T05:53:27.629Z,30.50
2018-05-13T05:55:55.877Z,38.23
2018-05-13T05:58:23.396Z,31.23
2018-05-13T06:00:52.051Z,34.10
2018-05-13T06:03:20.376Z,37.37
2018-05-13T06:05:48.578Z,37.57
2018-05-13T06:08:16.085Z,35.80
2018-05-13T06:10:43.571Z,33.23
2018-05-13T06:13:11.090Z,40.83
2018-05-13T06:15:38.591Z,37.37
2018-05-13T06:18:06.097Z,33.60
2018-05-13T06:20:33.711Z,43.23
2018-05-13T06:23:01.237Z,37.97
2018-05-13T06:25:28.725Z,36.10
2018-05-13T06:27:56.231Z,40.40
2018-05-13T06:30:23.754Z,42.33
2018-05-13T06:32:51.245Z,44.57
2018-05-13T06:35:18.762Z,43.90
2018-05-13T06:37:46.280Z,48.43
2018-05-13T06:40:14.597Z,47.03
2018-05-13T06:42:42.113Z,46.00
2018-05-13T06:45:09.624Z,49.70
2018-05-13T06:47:37.128Z,50.20
2018-05-13T06:50:04.601Z,55.57
2018-05-13T06:52:32.137Z,55.47
2018-05-13T06:54:59.625Z,60.37
2018-05-13T06:57:27.152Z,56.17
2018-05-13T06:59:54.636Z,61.17
2018-05-13T07:02:22.176Z,63.30
2018-05-13T07:04:49.700Z,62.30
2018-05-13T07:07:17.189Z,57.70
2018-05-13T07:09:44.698Z,57.73
2018-05-13T07:12:12.985Z,58.37
2018-05-13T07:14:41.176Z,55.80
2018-05-13T07:17:08.677Z,60.83
2018-05-13T07:19:36.165Z,58.60
2018-05-13T07:22:04.438Z,58.67
2018-05-13T07:24:32.698Z,59.50
2018-05-13T07:27:00.980Z,61.50
2018-05-13T07:29:29.235Z,60.10
2018-05-13T07:31:56.752Z,53.97
2018-05-13T07:34:24.255Z,47.27
2018-05-13T07:36:51.758Z,54.77
2018-05-13T07:39:19.265Z,54.70
2018-05-13T07:41:46.755Z,52.90
2018-05-13T07:44:14.291Z,54.97
2018-05-13T07:46:42.576Z,54.20
2018-05-13T07:49:10.840Z,59.60
2018-05-13T07:51:39.128Z,55.60
2018-05-13T07:54:08.314Z,59.67
2018-05-13T07:56:36.622Z,50.30
2018-05-13T07:59:04.122Z,64.07
2018-05-13T08:01:31.641Z,59.50
2018-05-13T08:03:59.136Z,54.53
2018-05-13T08:06:26.654Z,53.90
2018-05-13T08:08:54.148Z,54.50
2018-05-13T08:11:22.124Z,54.27
2018-05-13T08:13:49.629Z,65.37
2018-05-13T08:16:17.145Z,60.90
